KORL/ORL METAR and TAF weather

Enter ICAO airport designator
Station Type Date Time Source
KORL METAR 2022/01/26 21:09 UTC NOAA

KORL 262109Z 02013KT 10SM BKN009 OVC043 17/14 A3004 RMK AO2 T01720144


Station Type Date Time Source
KORL Decoded METAR 2022/01/26 21:09 UTC NOAA

ORLANDO EXECUTIVE AIRPORT, FL, United States (KORL) 28-33N 081-20W 37M
Jan 26, 2022 - 04:09 PM EST / 2022.01.26 2109 UTC
Wind: from the NNE (020 degrees) at 15 MPH (13 KT):0
Visibility: 10 mile(s):0
Sky conditions: overcast
Temperature: 63.0 F (17.2 C)
Dew Point: 57.9 F (14.4 C)
Relative Humidity: 83%
Pressure (altimeter): 30.04 in. Hg (1017 hPa)
ob: KORL 262109Z 02013KT 10SM BKN009 OVC043 17/14 A3004 RMK AO2 T01720144
cycle: 21

Station Type Date Time Source
KORL TAF UTC NOAA

Error!

Example: see airport list